Time;durP1;ratioP1;P1;durP2;ratioP2;P2;SDS_P1;SDS_P2;PMS_P1;PMS_P2;Temp;Humidity;BMP_temperature;BMP_pressure;BME280_temperature;BME280_humidity;BME280_pressure;Samples;Min_cycle;Max_cycle;Signal;HPM_P1;HPM_P2
2022/01/27 00:01:21;;;;;;;37.92;24.38;;;;;;;4.98;69.61;102578.72;3581576;40;20076;-63
2022/01/27 00:04:03;;;;;;;37.97;23.80;;;;;;;5.12;69.73;102598.16;3582706;40;20162;-63
2022/01/27 00:06:34;;;;;;;39.75;25.10;;;;;;;5.05;69.64;102592.00;3583270;40;20290;-63
2022/01/27 00:09:11;;;;;;;39.50;23.50;;;;;;;5.05;69.95;102589.34;3573923;40;20044;-64
2022/01/27 00:11:38;;;;;;;39.53;25.80;;;;;;;5.11;70.14;102596.38;3582247;40;20044;-63
2022/01/27 00:14:05;;;;;;;38.15;24.15;;;;;;;5.10;70.10;102578.59;3585722;40;20071;-63
2022/01/27 00:16:35;;;;;;;43.63;25.08;;;;;;;5.14;69.75;102577.69;3585536;40;20044;-63
2022/01/27 00:19:00;;;;;;;37.85;24.85;;;;;;;5.11;70.09;102572.41;3582539;40;20052;-64
2022/01/27 00:21:30;;;;;;;36.92;24.15;;;;;;;5.11;69.67;102553.75;3575460;40;20101;-63
2022/01/27 00:23:57;;;;;;;36.75;22.58;;;;;;;5.12;70.21;102547.50;3583147;40;20083;-63
2022/01/27 00:26:24;;;;;;;39.03;22.88;;;;;;;5.18;70.07;102551.88;3583863;40;20043;-63
2022/01/27 00:28:51;;;;;;;40.95;23.52;;;;;;;5.19;70.03;102542.97;3584236;40;20052;-63
2022/01/27 00:31:19;;;;;;;37.00;23.67;;;;;;;5.18;69.58;102552.75;3587204;40;20302;-63
2022/01/27 00:33:47;;;;;;;36.83;23.55;;;;;;;5.15;69.61;102544.81;3583465;40;20041;-64
2022/01/27 00:36:13;;;;;;;36.03;23.17;;;;;;;5.17;69.78;102553.69;3582947;40;20048;-63
2022/01/27 00:38:39;;;;;;;40.47;24.58;;;;;;;5.22;69.62;102562.47;3582303;40;20056;-62
2022/01/27 00:41:05;;;;;;;39.42;24.13;;;;;;;5.20;69.93;102556.31;3581944;40;20056;-63
2022/01/27 00:43:31;;;;;;;38.75;23.13;;;;;;;5.22;69.76;102548.28;3583543;40;20088;-63
2022/01/27 00:45:58;;;;;;;39.25;23.90;;;;;;;5.26;69.62;102553.53;3587110;40;20059;-63
2022/01/27 00:48:24;;;;;;;37.63;23.67;;;;;;;5.24;69.85;102544.69;3589909;40;20053;-63
2022/01/27 00:50:56;;;;;;;35.08;23.98;;;;;;;5.22;69.50;102543.81;3584450;40;20044;-63
2022/01/27 00:53:42;;;;;;;36.72;23.15;;;;;;;5.33;70.04;102533.03;3587031;40;20048;-63
2022/01/27 00:56:20;;;;;;;39.40;24.02;;;;;;;4.96;69.46;102481.97;3587221;40;20052;-64
2022/01/27 01:01:17;;;;;;;35.90;22.15;;;;;;;5.28;69.76;102530.41;3584631;40;20048;-63
2022/01/27 01:03:46;;;;;;;38.58;22.52;;;;;;;5.31;69.38;102527.72;3585418;40;20508;-64
2022/01/27 01:19:22;;;;;;;39.00;22.90;;;;;;;5.34;69.33;102498.34;3582729;40;20092;-64
2022/01/27 01:30:32;;;;;;;32.13;21.48;;;;;;;5.32;69.56;102489.47;3584307;40;20078;-64
2022/01/27 01:32:58;;;;;;;35.72;21.85;;;;;;;5.41;69.74;102498.25;3584391;40;20079;-63
2022/01/27 01:35:28;;;;;;;34.22;22.67;;;;;;;5.41;69.36;102504.47;3584460;40;20036;-63
2022/01/27 01:37:57;;;;;;;34.90;21.75;;;;;;;5.42;69.39;102484.88;3583955;40;20071;-64
2022/01/27 01:40:24;;;;;;;35.30;22.02;;;;;;;5.49;69.54;102494.59;3584147;40;20060;-63
2022/01/27 01:42:50;;;;;;;36.08;22.67;;;;;;;5.51;69.14;102479.44;3581943;40;20306;-63
2022/01/27 01:45:20;;;;;;;35.25;21.38;;;;;;;5.46;69.18;102472.44;3584041;40;20052;-64
2022/01/27 01:47:48;;;;;;;31.98;20.98;;;;;;;5.50;68.89;102459.00;3583866;40;20052;-64
2022/01/27 01:50:16;;;;;;;34.08;21.58;;;;;;;5.51;69.32;102451.88;3583839;40;20060;-64
2022/01/27 01:52:44;;;;;;;33.47;22.08;;;;;;;5.44;69.24;102435.09;3581621;40;20109;-63
2022/01/27 01:55:10;;;;;;;33.35;21.48;;;;;;;5.50;68.79;102452.81;3583858;40;20052;-63
2022/01/27 01:57:36;;;;;;;34.83;22.38;;;;;;;5.46;69.03;102459.09;3583842;40;20060;-64
2022/01/27 02:00:08;;;;;;;34.17;22.65;;;;;;;5.39;69.33;102446.72;3582624;40;20375;-63
2022/01/27 02:02:33;;;;;;;32.85;21.60;;;;;;;5.51;69.21;102462.56;3585890;40;20044;-64
2022/01/27 02:04:59;;;;;;;37.05;21.80;;;;;;;5.43;69.12;102448.47;3585980;40;20381;-63
2022/01/27 02:08:17;;;;;;;32.92;21.58;;;;;;;5.49;69.48;102459.06;3586193;40;20052;-63
2022/01/27 02:17:58;;;;;;;34.15;22.65;;;;;;;5.51;68.95;102446.56;3579229;40;20338;-63
2022/01/27 02:19:21;;;;;;;36.05;21.08;;;;;;;5.56;69.51;102415.38;3581580;40;20089;-63
2022/01/27 02:21:58;;;;;;;31.92;21.58;;;;;;;5.50;69.61;102413.66;3583015;40;20056;-63
2022/01/27 02:24:28;;;;;;;33.67;21.33;;;;;;;5.50;69.63;102402.13;3581715;40;20123;-63
2022/01/27 02:26:56;;;;;;;30.60;20.48;;;;;;;5.48;69.19;102395.91;3569557;40;20063;-63
2022/01/27 02:29:23;;;;;;;31.48;20.13;;;;;;;5.46;69.77;102397.75;3578011;40;20063;-63
2022/01/27 02:31:52;;;;;;;35.22;21.00;;;;;;;5.50;69.58;102410.13;3583308;40;20064;-63
2022/01/27 02:34:19;;;;;;;32.47;21.30;;;;;;;5.56;69.46;102428.72;3583541;40;20047;-63
2022/01/27 02:36:46;;;;;;;32.97;21.73;;;;;;;5.53;69.66;102418.09;3583300;40;20411;-63
2022/01/27 02:39:12;;;;;;;32.25;20.83;;;;;;;5.60;69.56;102411.75;3583752;40;20044;-63
2022/01/27 02:42:19;;;;;;;36.60;21.45;;;;;;;5.29;69.93;102366.88;3583523;40;20084;-63
2022/01/27 02:44:47;;;;;;;34.30;21.73;;;;;;;5.59;69.31;102405.53;3582181;40;20048;-64
2022/01/27 02:47:15;;;;;;;33.55;20.85;;;;;;;5.61;69.70;102400.16;3574999;40;20383;-64
2022/01/27 02:49:42;;;;;;;31.20;20.10;;;;;;;5.60;69.49;102401.06;3585597;40;20044;-63
2022/01/27 02:52:09;;;;;;;29.63;20.23;;;;;;;5.23;69.87;102332.34;3583883;40;20056;-64
2022/01/27 02:54:36;;;;;;;30.25;20.35;;;;;;;5.64;69.78;102394.78;3583047;40;20040;-63
2022/01/27 02:57:02;;;;;;;33.22;21.48;;;;;;;5.62;70.03;102396.59;3583051;40;20052;-63
2022/01/27 02:59:28;;;;;;;33.38;21.55;;;;;;;5.63;69.96;102386.81;3583814;40;20086;-63
2022/01/27 03:01:54;;;;;;;36.95;21.92;;;;;;;5.71;70.13;102385.78;3582635;40;20399;-63
2022/01/27 03:04:23;;;;;;;34.70;21.42;;;;;;;5.67;69.86;102378.72;3583379;40;20322;-62
2022/01/27 03:06:50;;;;;;;34.20;20.30;;;;;;;5.65;70.14;102372.53;3583102;40;20850;-63
2022/01/27 03:09:17;;;;;;;31.73;20.70;;;;;;;5.64;70.44;102349.41;3581416;40;20060;-63
2022/01/27 03:12:06;;;;;;;34.85;20.73;;;;;;;5.59;70.32;102354.84;3580096;40;20044;-63
2022/01/27 03:14:32;;;;;;;33.90;21.00;;;;;;;5.62;70.58;102353.91;3583643;40;20074;-63
2022/01/27 03:17:01;;;;;;;31.98;20.95;;;;;;;5.62;70.01;102369.94;3583388;40;20302;-63
2022/01/27 03:19:28;;;;;;;31.48;20.48;;;;;;;5.56;70.34;102367.34;3583934;40;20074;-63
2022/01/27 03:21:56;;;;;;;32.17;20.77;;;;;;;5.66;70.48;102381.41;3583082;40;20067;-63
2022/01/27 03:24:24;;;;;;;30.88;19.50;;;;;;;5.67;70.04;102365.38;3581427;40;20060;-63
2022/01/27 03:26:52;;;;;;;31.40;19.55;;;;;;;5.70;69.83;102343.09;3582626;40;20072;-62
2022/01/27 03:29:18;;;;;;;33.10;20.20;;;;;;;5.65;69.93;102351.19;3583756;40;20064;-63
2022/01/27 03:31:45;;;;;;;33.03;19.67;;;;;;;5.69;70.55;102349.34;3575680;40;20049;-63
2022/01/27 03:34:13;;;;;;;31.65;18.58;;;;;;;5.68;70.44;102332.47;3582051;40;20108;-66
2022/01/27 03:36:40;;;;;;;31.63;20.20;;;;;;;5.33;70.37;102280.63;3574187;40;20086;-65
2022/01/27 03:39:07;;;;;;;35.30;21.00;;;;;;;5.63;70.53;102339.66;3584724;40;20048;-65
2022/01/27 03:41:35;;;;;;;32.60;21.05;;;;;;;5.60;70.75;102334.38;3579444;40;20052;-64
2022/01/27 03:44:03;;;;;;;33.78;21.05;;;;;;;5.55;71.14;102321.13;3572129;40;20118;-65
2022/01/27 03:46:29;;;;;;;34.28;20.80;;;;;;;5.43;71.31;102316.00;3583696;40;20052;-63
2022/01/27 03:48:55;;;;;;;35.55;21.48;;;;;;;5.52;71.06;102331.84;3580390;40;21097;-63
2022/01/27 03:51:21;;;;;;;34.10;18.90;;;;;;;5.53;71.23;102332.72;3581404;40;20056;-63
2022/01/27 03:53:47;;;;;;;31.83;19.27;;;;;;;5.51;71.57;102337.19;3578694;40;20134;-63
2022/01/27 03:56:12;;;;;;;35.60;20.55;;;;;;;5.52;71.41;102349.66;3576489;40;20060;-62
2022/01/27 03:58:38;;;;;;;34.97;19.75;;;;;;;5.53;72.00;102330.06;3576095;40;20087;-63
2022/01/27 04:01:06;;;;;;;33.15;20.67;;;;;;;5.55;71.96;102337.13;3578904;40;20063;-62
2022/01/27 04:03:36;;;;;;;33.35;20.27;;;;;;;5.56;71.47;102324.69;3581388;40;20058;-63
2022/01/27 04:06:07;;;;;;;31.75;19.50;;;;;;;5.57;71.39;102316.63;3582661;40;20041;-63
2022/01/27 04:08:37;;;;;;;34.50;19.45;;;;;;;5.64;71.72;102325.41;3580142;40;20430;-62
2022/01/27 04:11:08;;;;;;;32.00;20.52;;;;;;;5.64;71.35;102312.06;3577930;40;20049;-63
2022/01/27 04:13:35;;;;;;;33.00;19.70;;;;;;;5.68;71.99;102315.59;3578819;40;20053;-63
2022/01/27 04:16:05;;;;;;;34.97;19.92;;;;;;;5.45;71.44;102262.63;3576207;40;20048;-63
2022/01/27 04:18:31;;;;;;;35.22;18.77;;;;;;;5.55;71.53;102265.13;3580343;40;20354;-63
2022/01/27 04:20:58;;;;;;;36.50;19.73;;;;;;;5.68;71.90;102284.47;3580650;40;20056;-63
2022/01/27 04:23:24;;;;;;;31.10;18.63;;;;;;;5.66;71.61;102290.72;3584131;40;20056;-63
2022/01/27 04:25:51;;;;;;;33.50;19.98;;;;;;;5.62;72.00;102289.91;3584215;40;20379;-62
2022/01/27 04:28:23;;;;;;;34.28;19.85;;;;;;;5.35;71.74;102249.44;3583632;40;20113;-62
2022/01/27 04:30:50;;;;;;;31.42;18.95;;;;;;;5.52;72.26;102282.97;3583787;40;20064;-62
2022/01/27 04:33:17;;;;;;;29.55;18.83;;;;;;;5.63;72.15;102299.66;3583297;40;20052;-63
2022/01/27 04:35:47;;;;;;;34.15;19.85;;;;;;;5.63;72.43;102302.31;3583705;40;20052;-62
2022/01/27 04:41:00;;;;;;;33.78;20.17;;;;;;;5.66;72.20;102288.06;3582770;40;20291;-62
2022/01/27 04:47:06;;;;;;;36.13;18.77;;;;;;;5.64;72.00;102263.19;3581861;40;20096;-63
2022/01/27 04:49:00;;;;;;;28.67;18.02;;;;;;;5.56;72.15;102271.34;3575249;40;20056;-62
2022/01/27 04:51:26;;;;;;;33.67;18.08;;;;;;;5.56;72.28;102277.53;3582803;40;20063;-62
2022/01/27 04:56:42;;;;;;;29.80;18.08;;;;;;;5.57;72.75;102268.63;3564937;40;20059;-63
2022/01/27 04:59:19;;;;;;;31.48;18.95;;;;;;;5.52;72.31;102277.63;3584259;40;20288;-63
2022/01/27 05:01:57;;;;;;;29.33;18.92;;;;;;;5.39;72.88;102244.06;3580225;40;20044;-62
2022/01/27 05:04:29;;;;;;;30.80;17.92;;;;;;;5.41;72.80;102253.81;3583436;40;20056;-63
2022/01/27 05:06:54;;;;;;;34.45;19.27;;;;;;;5.50;72.87;102252.78;3582461;40;20636;-62
2022/01/27 05:09:20;;;;;;;31.10;19.92;;;;;;;5.46;73.08;102243.06;3584090;40;20040;-62
2022/01/27 05:11:51;;;;;;;31.65;19.17;;;;;;;5.42;73.21;102241.34;3582641;40;20052;-62
2022/01/27 05:14:23;;;;;;;30.60;18.20;;;;;;;5.42;73.15;102249.34;3572040;40;20371;-63
2022/01/27 05:16:49;;;;;;;32.55;19.15;;;;;;;5.33;73.37;102240.63;3583483;40;20373;-62
2022/01/27 05:19:15;;;;;;;34.63;19.83;;;;;;;5.38;73.31;102243.19;3584417;40;20366;-63
2022/01/27 05:21:41;;;;;;;33.00;17.58;;;;;;;5.41;73.32;102242.25;3584522;40;20111;-62
2022/01/27 05:24:08;;;;;;;33.40;18.42;;;;;;;5.41;73.63;102239.59;3584405;40;20324;-62
2022/01/27 05:26:34;;;;;;;33.30;18.70;;;;;;;5.20;73.61;102195.50;3584956;40;20121;-62
2022/01/27 05:29:03;;;;;;;33.30;18.63;;;;;;;5.42;73.46;102226.22;3581243;40;20395;-63
2022/01/27 05:31:29;;;;;;;30.73;17.80;;;;;;;5.48;73.46;102233.25;3580005;40;20057;-63
2022/01/27 05:33:54;;;;;;;32.17;18.85;;;;;;;5.51;73.53;102230.50;3584115;40;20056;-62
2022/01/27 05:36:20;;;;;;;32.72;18.55;;;;;;;5.54;73.41;102211.78;3580542;40;20387;-63
2022/01/27 05:38:46;;;;;;;33.03;18.48;;;;;;;5.52;73.66;102203.84;3583202;40;20100;-63
2022/01/27 05:41:15;;;;;;;33.25;19.65;;;;;;;5.56;73.79;102204.66;3583443;40;20048;-63
2022/01/27 05:43:41;;;;;;;31.95;18.02;;;;;;;5.61;73.40;102209.88;3581481;40;20050;-62
2022/01/27 05:46:07;;;;;;;29.98;17.98;;;;;;;5.57;73.53;102209.06;3583671;40;20056;-63
2022/01/27 05:48:32;;;;;;;37.05;20.02;;;;;;;5.62;73.43;102203.66;3583367;40;20529;-63
2022/01/27 05:50:58;;;;;;;36.00;19.02;;;;;;;5.68;73.16;102215.09;3583782;40;20052;-62
2022/01/27 05:53:25;;;;;;;33.20;19.48;;;;;;;5.68;73.04;102207.09;3582885;40;20056;-63
2022/01/27 05:55:51;;;;;;;31.90;19.20;;;;;;;5.73;72.75;102202.53;3580016;40;20052;-62
2022/01/27 05:58:16;;;;;;;33.25;19.10;;;;;;;5.80;73.20;102220.19;3581629;40;20383;-62
2022/01/27 06:00:42;;;;;;;36.50;20.60;;;;;;;5.79;72.56;102202.41;3583180;40;20059;-63
2022/01/27 06:03:08;;;;;;;31.73;18.40;;;;;;;5.66;72.71;102174.22;3582750;40;20064;-62
2022/01/27 06:05:34;;;;;;;35.42;18.73;;;;;;;5.66;72.45;102158.22;3584334;40;20126;-62
2022/01/27 06:07:59;;;;;;;30.40;18.20;;;;;;;5.93;72.80;102204.84;3585370;40;20048;-62
2022/01/27 06:10:26;;;;;;;31.83;18.05;;;;;;;5.91;72.76;102187.06;3583872;40;20064;-63
2022/01/27 06:12:58;;;;;;;33.92;18.88;;;;;;;6.00;72.13;102200.25;3582958;40;20052;-62
2022/01/27 06:15:26;;;;;;;32.97;19.55;;;;;;;5.98;73.02;102188.72;3582258;40;20048;-63
2022/01/27 06:17:53;;;;;;;33.15;20.65;;;;;;;5.97;73.15;102186.97;3581670;40;20141;-63
2022/01/27 06:20:20;;;;;;;30.98;18.60;;;;;;;5.98;73.50;102196.75;3583122;40;20153;-63
2022/01/27 06:22:47;;;;;;;35.20;19.27;;;;;;;5.99;73.59;102195.81;3583060;40;20469;-63
2022/01/27 06:25:15;;;;;;;30.23;17.77;;;;;;;6.01;73.59;102188.66;3584673;40;20056;-62
2022/01/27 06:27:41;;;;;;;36.10;19.92;;;;;;;5.99;74.04;102196.72;3580871;40;20100;-62
2022/01/27 06:30:10;;;;;;;37.42;20.00;;;;;;;5.76;74.45;102157.09;3583192;40;20115;-62
2022/01/27 06:32:36;;;;;;;38.70;20.38;;;;;;;5.95;74.54;102188.78;3582134;40;20098;-62
2022/01/27 06:35:03;;;;;;;33.70;19.63;;;;;;;5.85;75.44;102173.84;3584261;40;20068;-62
2022/01/27 06:37:31;;;;;;;35.15;20.20;;;;;;;5.97;74.97;102189.66;3583895;40;20048;-63
2022/01/27 06:39:57;;;;;;;34.38;20.17;;;;;;;5.82;74.88;102162.31;3583180;40;20048;-63
2022/01/27 06:42:23;;;;;;;34.88;20.73;;;;;;;5.99;74.83;102193.16;3585191;40;20044;-63
2022/01/27 06:44:49;;;;;;;41.92;21.92;;;;;;;6.00;75.24;102184.25;3583617;40;20063;-64
2022/01/27 06:47:14;;;;;;;36.65;21.17;;;;;;;5.98;75.46;102175.38;3582502;40;20064;-63
2022/01/27 06:49:40;;;;;;;36.45;20.17;;;;;;;5.99;75.67;102166.47;3583185;40;20060;-63
2022/01/27 06:52:07;;;;;;;33.95;20.50;;;;;;;5.97;75.16;102161.16;3582384;40;20063;-64
2022/01/27 06:54:33;;;;;;;37.70;21.60;;;;;;;5.99;75.41;102150.44;3581633;40;20051;-63
2022/01/27 06:57:00;;;;;;;37.47;21.60;;;;;;;6.01;75.06;102151.28;3582961;40;20133;-64
2022/01/27 06:59:26;;;;;;;38.50;21.02;;;;;;;6.03;75.52;102168.16;3583922;40;20071;-63
2022/01/27 07:01:52;;;;;;;36.10;21.30;;;;;;;6.01;75.85;102167.31;3582850;40;20410;-63
2022/01/27 07:04:18;;;;;;;36.67;20.65;;;;;;;6.06;75.12;102157.44;3572580;40;20342;-64
2022/01/27 07:06:43;;;;;;;36.80;20.88;;;;;;;6.09;75.45;102157.38;3583415;40;20052;-63
2022/01/27 07:09:09;;;;;;;40.17;22.33;;;;;;;6.07;75.09;102159.19;3583644;40;20060;-64
2022/01/27 07:11:35;;;;;;;36.40;20.60;;;;;;;6.05;74.84;102145.84;3581581;40;20065;-63
2022/01/27 07:14:00;;;;;;;40.28;22.45;;;;;;;6.03;75.26;102160.16;3582975;40;20068;-64
2022/01/27 07:16:26;;;;;;;37.60;22.15;;;;;;;6.12;74.83;102165.31;3574089;40;20040;-63
2022/01/27 07:18:52;;;;;;;40.78;21.42;;;;;;;6.11;75.39;102160.84;3582977;40;20063;-63
2022/01/27 07:21:19;;;;;;;38.38;21.85;;;;;;;6.13;74.82;102159.03;3581830;40;20072;-63
2022/01/27 07:23:46;;;;;;;38.38;21.73;;;;;;;6.15;75.53;102170.59;3581901;40;20052;-64
2022/01/27 07:26:14;;;;;;;35.55;22.83;;;;;;;6.19;75.22;102174.94;3583028;40;20052;-63
2022/01/27 07:28:40;;;;;;;37.20;22.13;;;;;;;6.19;74.85;102172.25;3581832;40;20052;-63
2022/01/27 07:31:05;;;;;;;38.95;22.73;;;;;;;6.19;74.82;102168.72;3582515;40;20480;-63
2022/01/27 07:33:31;;;;;;;36.78;21.67;;;;;;;6.20;74.70;102170.47;3579586;40;20060;-63
2022/01/27 07:35:57;;;;;;;39.80;21.45;;;;;;;6.14;75.33;102155.44;3581572;40;20078;-63
2022/01/27 07:38:23;;;;;;;38.25;22.23;;;;;;;5.73;74.98;102090.47;3583505;40;20075;-64
2022/01/27 07:40:49;;;;;;;35.80;22.10;;;;;;;6.25;75.05;102180.13;3581255;40;20050;-64
2022/01/27 07:43:16;;;;;;;37.40;22.50;;;;;;;6.28;74.83;102174.72;3583201;40;20323;-63
2022/01/27 07:45:41;;;;;;;38.53;22.38;;;;;;;6.32;74.75;102174.66;3581935;40;20305;-64
2022/01/27 07:48:07;;;;;;;37.38;20.55;;;;;;;6.34;74.75;102172.81;3582577;40;20052;-63
2022/01/27 07:50:33;;;;;;;40.70;21.77;;;;;;;6.34;74.82;102170.16;3582124;40;20040;-63
2022/01/27 07:53:00;;;;;;;37.75;21.85;;;;;;;5.84;75.18;102082.25;3582237;40;20078;-63
2022/01/27 07:55:26;;;;;;;39.50;22.92;;;;;;;6.36;74.88;102166.53;3582996;40;20063;-64
2022/01/27 07:57:52;;;;;;;40.35;22.05;;;;;;;6.40;75.78;102167.34;3583448;40;20103;-63
2022/01/27 08:00:18;;;;;;;39.55;23.30;;;;;;;6.38;75.77;102171.84;3586630;40;20641;-64
2022/01/27 08:02:45;;;;;;;41.95;23.55;;;;;;;6.37;76.58;102188.78;3583809;40;20090;-64
2022/01/27 08:05:12;;;;;;;42.00;23.30;;;;;;;6.35;77.08;102191.50;3585204;40;20418;-65
2022/01/27 08:07:38;;;;;;;46.20;24.38;;;;;;;6.30;78.32;102181.81;3584215;40;20052;-65
2022/01/27 08:10:04;;;;;;;46.10;25.33;;;;;;;6.23;78.90;102175.75;3584421;40;20100;-65
2022/01/27 08:12:30;;;;;;;47.88;25.88;;;;;;;6.23;79.81;102192.63;3582203;40;20045;-65
2022/01/27 08:14:55;;;;;;;49.70;26.85;;;;;;;6.19;79.92;102196.28;3584098;40;20082;-65
2022/01/27 08:17:21;;;;;;;48.83;26.02;;;;;;;6.14;80.09;102187.50;3584180;40;20056;-66
2022/01/27 08:19:47;;;;;;;49.50;26.73;;;;;;;6.03;80.51;102168.16;3583382;40;20054;-65
2022/01/27 08:22:12;;;;;;;54.40;27.75;;;;;;;6.12;80.88;102189.34;3584406;40;20055;-67
2022/01/27 08:24:39;;;;;;;51.30;26.98;;;;;;;6.14;81.52;102183.94;3584409;40;20056;-65
2022/01/27 08:27:07;;;;;;;50.45;27.33;;;;;;;6.05;81.98;102166.31;3584488;40;20392;-65
2022/01/27 08:29:44;;;;;;;52.85;28.85;;;;;;;6.10;82.25;102169.78;3581098;40;20060;-65
2022/01/27 08:32:16;;;;;;;51.65;25.92;;;;;;;6.14;81.81;102187.50;3582436;40;20052;-65
2022/01/27 08:34:42;;;;;;;45.70;25.48;;;;;;;6.14;81.85;102166.13;3584127;40;20327;-66
2022/01/27 08:37:12;;;;;;;55.97;27.85;;;;;;;6.14;82.40;102166.13;3583541;40;20055;-67
2022/01/27 08:39:40;;;;;;;52.33;27.25;;;;;;;6.08;82.37;102166.25;3585254;40;20036;-67
2022/01/27 08:42:08;;;;;;;63.40;29.83;;;;;;;6.11;82.76;102171.53;3587237;40;20056;-66
2022/01/27 08:44:35;;;;;;;59.38;29.17;;;;;;;6.10;83.03;102176.94;3587056;40;20048;-66
2022/01/27 08:47:00;;;;;;;51.53;27.77;;;;;;;6.13;82.98;102168.84;3586218;40;20052;-66
2022/01/27 08:49:27;;;;;;;60.22;28.60;;;;;;;6.04;82.59;102160.13;3587854;40;20306;-65
2022/01/27 08:51:55;;;;;;;53.78;28.33;;;;;;;6.12;82.96;102167.97;3586418;40;20363;-65
2022/01/27 08:54:21;;;;;;;52.22;28.35;;;;;;;6.15;82.86;102173.25;3587960;40;20044;-66
2022/01/27 08:56:47;;;;;;;53.95;28.52;;;;;;;6.14;83.39;102171.47;3584191;40;20056;-66
2022/01/27 08:59:13;;;;;;;47.72;26.83;;;;;;;6.21;83.04;102170.41;3582662;40;20074;-67
2022/01/27 09:01:40;;;;;;;55.55;28.60;;;;;;;6.21;83.08;102161.53;3584085;40;20068;-65
2022/01/27 09:04:08;;;;;;;60.65;29.13;;;;;;;6.07;83.58;102145.84;3583481;40;20057;-66
2022/01/27 09:06:34;;;;;;;53.25;28.60;;;;;;;6.30;83.18;102171.13;3583842;40;20372;-66
2022/01/27 09:09:00;;;;;;;53.78;30.02;;;;;;;6.31;83.21;102162.19;3584158;40;20165;-65
2022/01/27 09:11:33;;;;;;;52.17;29.60;;;;;;;6.27;83.45;102164.94;3583489;40;20052;-65
2022/01/27 09:14:03;;;;;;;52.45;29.08;;;;;;;6.35;83.84;102169.25;3584577;40;20060;-66
2022/01/27 09:16:31;;;;;;;53.75;28.90;;;;;;;6.40;84.14;102170.00;3582327;40;20048;-66
2022/01/27 09:19:00;;;;;;;58.25;29.45;;;;;;;6.31;84.42;102138.16;3584412;40;20080;-65
2022/01/27 09:21:33;;;;;;;51.92;29.55;;;;;;;6.47;84.04;102158.25;3571312;40;20056;-65
2022/01/27 09:23:59;;;;;;;53.72;30.65;;;;;;;5.99;83.45;102087.28;3583599;40;20307;-65
2022/01/27 09:27:00;;;;;;;50.05;30.33;;;;;;;6.56;84.42;102163.38;3579898;40;20608;-65
2022/01/27 09:29:19;;;;;;;51.28;29.60;;;;;;;6.59;84.25;102149.97;3582378;40;20059;-66
2022/01/27 09:31:47;;;;;;;53.90;30.95;;;;;;;6.64;84.26;102156.09;3581288;40;20082;-65
2022/01/27 09:34:14;;;;;;;49.13;27.33;;;;;;;6.68;83.60;102154.22;3583613;40;20060;-65
2022/01/27 09:36:40;;;;;;;52.38;30.20;;;;;;;6.65;84.06;102157.81;3581734;40;20052;-66
2022/01/27 09:39:06;;;;;;;50.80;31.20;;;;;;;6.70;84.32;102160.41;3585305;40;20040;-65
2022/01/27 09:41:38;;;;;;;46.80;30.25;;;;;;;6.72;84.07;102166.56;3582815;40;20050;-65
2022/01/27 09:44:08;;;;;;;45.58;27.67;;;;;;;6.73;84.53;102168.34;3584198;40;20334;-65
2022/01/27 09:46:34;;;;;;;44.05;27.00;;;;;;;6.76;83.91;102159.38;3583493;40;20067;-65
2022/01/27 09:49:12;;;;;;;45.15;27.23;;;;;;;6.75;84.37;102155.81;3583878;40;20116;-65
2022/01/27 09:51:41;;;;;;;43.25;26.35;;;;;;;6.52;84.04;102118.97;3584054;40;20581;-65
2022/01/27 09:54:08;;;;;;;39.30;25.58;;;;;;;6.89;83.68;102171.53;3582870;40;20405;-66
2022/01/27 09:56:36;;;;;;;42.38;27.67;;;;;;;6.79;83.56;102175.31;3579638;40;20056;-65
2022/01/27 09:59:04;;;;;;;44.58;28.38;;;;;;;6.82;84.18;102172.56;3581789;40;20523;-65
2022/01/27 10:01:30;;;;;;;42.67;26.60;;;;;;;6.84;84.56;102179.63;3581948;40;20063;-65
2022/01/27 10:04:04;;;;;;;46.85;26.67;;;;;;;6.83;84.41;102174.34;3583298;40;20072;-66
2022/01/27 10:06:33;;;;;;;44.15;27.33;;;;;;;6.82;84.12;102184.16;3583967;40;20084;-66
2022/01/27 10:09:18;;;;;;;43.60;28.25;;;;;;;6.84;84.51;102179.63;3583510;40;20156;-66
2022/01/27 10:11:47;;;;;;;40.90;26.75;;;;;;;6.83;84.27;102177.91;3580230;40;20057;-65
2022/01/27 10:14:27;;;;;;;40.88;25.88;;;;;;;6.86;84.45;102179.63;3583581;40;20310;-65
2022/01/27 10:17:00;;;;;;;39.63;25.60;;;;;;;6.67;84.48;102137.31;3583491;40;20102;-66
2022/01/27 10:19:27;;;;;;;38.33;24.83;;;;;;;6.88;84.59;102175.09;3584238;40;20056;-66
2022/01/27 10:22:10;;;;;;;40.15;26.77;;;;;;;6.89;85.40;102182.22;3582998;40;20118;-65
2022/01/27 10:24:37;;;;;;;40.93;27.67;;;;;;;6.70;84.76;102145.25;3582776;40;20092;-65
2022/01/27 10:27:27;;;;;;;68.15;39.25;;;;;;;6.92;84.88;102171.44;3583575;40;20125;-65
2022/01/27 10:32:37;;;;;;;42.95;29.80;;;;;;;6.98;85.01;102165.94;3573940;40;20078;-67
2022/01/27 10:35:04;;;;;;;46.33;30.00;;;;;;;6.97;84.69;102162.38;3584579;40;20399;-65
2022/01/27 10:38:00;;;;;;;39.15;27.40;;;;;;;7.01;84.83;102170.31;3584392;40;20069;-66
2022/01/27 10:40:38;;;;;;;34.38;25.38;;;;;;;7.03;85.04;102163.16;3586024;40;20047;-64
2022/01/27 10:43:19;;;;;;;38.60;27.77;;;;;;;7.03;84.74;102169.38;3586507;40;20060;-65
2022/01/27 10:48:50;;;;;;;38.60;27.08;;;;;;;7.06;85.48;102171.09;3582482;40;20041;-65
2022/01/27 10:51:24;;;;;;;35.85;25.55;;;;;;;7.09;85.00;102169.22;3584138;40;20048;-65
2022/01/27 10:54:05;;;;;;;36.65;27.17;;;;;;;7.10;84.87;102170.09;3582840;40;20048;-65
2022/01/27 10:56:36;;;;;;;35.58;25.70;;;;;;;7.09;85.88;102171.00;3583724;40;20087;-70
2022/01/27 10:59:15;;;;;;;31.20;23.83;;;;;;;7.12;85.42;102166.47;3584926;40;20090;-65
2022/01/27 11:01:43;;;;;;;33.55;26.23;;;;;;;7.14;85.65;102166.44;3585030;40;20044;-65
2022/01/27 11:04:14;;;;;;;32.85;24.95;;;;;;;7.21;85.19;102176.91;3585318;40;20056;-65
2022/01/27 11:07:03;;;;;;;37.25;26.73;;;;;;;7.24;85.67;102172.41;3585523;40;20117;-67
2022/01/27 11:09:38;;;;;;;34.17;24.58;;;;;;;7.26;86.06;102167.88;3584256;40;20598;-65
2022/01/27 11:12:10;;;;;;;35.97;25.55;;;;;;;7.27;85.38;102162.53;3585684;40;20074;-65
2022/01/27 11:14:37;;;;;;;32.60;25.27;;;;;;;7.30;85.34;102165.09;3584733;40;20105;-65
2022/01/27 11:17:10;;;;;;;35.40;25.17;;;;;;;7.36;86.00;102156.06;3585782;40;20063;-65
2022/01/27 11:27:32;;;;;;;37.85;26.33;;;;;;;7.43;85.81;102134.44;3585111;40;20048;-65
2022/01/27 11:30:07;;;;;;;39.20;26.77;;;;;;;7.03;85.67;102056.22;3584105;40;20060;-64
2022/01/27 11:32:49;;;;;;;50.30;34.15;;;;;;;7.64;86.14;102135.63;3583593;40;20044;-65
2022/01/27 11:35:21;;;;;;;48.70;33.47;;;;;;;7.70;85.47;102131.88;3580976;40;20056;-66
2022/01/27 11:37:53;;;;;;;45.10;32.95;;;;;;;6.71;85.82;101949.25;3582213;40;20044;-65
2022/01/27 11:40:33;;;;;;;34.50;26.40;;;;;;;7.79;85.56;102130.75;3583062;40;20234;-64
2022/01/27 11:42:58;;;;;;;35.33;25.58;;;;;;;7.80;85.25;102119.09;3583742;40;20032;-67
2022/01/27 11:45:27;;;;;;;35.58;26.50;;;;;;;7.84;85.47;102129.69;3584492;40;20063;-65
2022/01/27 11:48:11;;;;;;;35.90;27.17;;;;;;;7.89;85.87;102124.19;3584050;40;20052;-65
2022/01/27 11:50:50;;;;;;;35.97;28.08;;;;;;;7.91;86.09;102114.31;3585531;40;20125;-65
2022/01/27 11:53:36;;;;;;;38.80;26.25;;;;;;;7.95;86.08;102118.66;3582266;40;20045;-66
2022/01/27 11:56:24;;;;;;;39.28;23.40;;;;;;;7.98;85.43;102118.56;3583918;40;20108;-65
2022/01/27 11:59:09;;;;;;;32.30;25.23;;;;;;;7.97;85.17;102111.47;3582860;40;20484;-65
2022/01/27 12:01:37;;;;;;;33.10;23.55;;;;;;;8.04;85.52;102121.06;3583108;40;20409;-64
2022/01/27 12:04:04;;;;;;;34.58;24.75;;;;;;;8.05;85.12;102116.56;3583125;40;20488;-65
2022/01/27 12:06:36;;;;;;;34.53;23.65;;;;;;;8.05;85.16;102119.25;3583357;40;20045;-65
2022/01/27 12:09:20;;;;;;;29.63;21.63;;;;;;;8.08;85.70;102128.06;3582914;40;20041;-65
2022/01/27 12:11:55;;;;;;;35.58;24.38;;;;;;;8.07;85.75;102114.72;3579514;40;20080;-65
2022/01/27 12:14:29;;;;;;;35.17;22.83;;;;;;;8.10;85.93;102118.19;3583249;40;20051;-65
2022/01/27 12:17:07;;;;;;;31.50;22.50;;;;;;;8.12;86.03;102120.84;3582372;40;20142;-64
2022/01/27 12:20:10;;;;;;;33.35;22.40;;;;;;;8.10;85.32;102107.47;3581264;40;20059;-65